Terminal Aerodrome Forecast
Issued by NWS Blacksburg, VA

Current Version | Previous Version | Graphics & Text | Print | Product List | Glossary On
Versions: 1 2 3 4 5 6 7 8 9 10 11 12 13 14 15 16
000
FTUS41 KRNK 301934 AAA
TAFBLF
TAF AMD
KBLF 301934Z 3020/3118 30006KT P6SM VCTS BKN045CB
      TEMPO 3020/3022 3SM TSRA SCT020 OVC035CB
     FM310000 00000KT P6SM SCT050
     FM310700 00000KT 4SM BR SCT250
     FM310900 00000KT 2SM BR SCT001
     FM311400 02005KT P6SM SCT045=

USA.gov is the U.S. government's official web portal to all federal, state and local government web resources and services.